Pinebluff, North Carolina
Current Conditions -  °F | °C
As of 2:56 PM on Friday 31 Oct 2014 (Local Time) from KHFF Reporting Station
Scattered Clouds Scattered Clouds  
Wind Chill: 64°   Ceiling: Unl
Heat Index: 64°   Visibility: 3mi
Dew Point: 42°   Wind: 2mph
Humidity: 45%   Direction: NA
Pressure: 29.84"   Gusts: NA
Location:  35.11°N, 79.47°W
Report Text: KHFF 311856Z AUTO VRB02KT 3SM SCT045 18/06 A2984 RMK AO2 SLP107 T01750055
Loading
Personal Weather Stations






























Interactive Weather Map
Tropical Storm Tracking
New forecast layout! Learn more

10-Day Weather Forecast

Advertisements
Track Severe Weather on mobile